sensor_id;sensor_type;location;lat;lon;timestamp;pressure;altitude;pressure_sealevel;temperature;humidity
65376;BME280;51976;47.332;9.404;2023-04-07T00:01:42;92715.78;;;5.73;52.13
65376;BME280;51976;47.332;9.404;2023-04-07T00:04:08;92600.16;;;4.97;52.15
65376;BME280;51976;47.332;9.404;2023-04-07T00:06:33;92697.09;;;5.84;52.20
65376;BME280;51976;47.332;9.404;2023-04-07T00:08:59;92707.16;;;5.98;51.77
65376;BME280;51976;47.332;9.404;2023-04-07T00:11:24;92699.38;;;6.02;51.49
65376;BME280;51976;47.332;9.404;2023-04-07T00:13:50;92696.25;;;5.78;51.66
65376;BME280;51976;47.332;9.404;2023-04-07T00:16:15;92699.38;;;5.65;51.81
65376;BME280;51976;47.332;9.404;2023-04-07T00:18:41;92690.50;;;5.59;52.05
65376;BME280;51976;47.332;9.404;2023-04-07T00:21:07;92660.53;;;5.57;51.77
65376;BME280;51976;47.332;9.404;2023-04-07T00:23:32;92695.91;;;5.64;51.56
65376;BME280;51976;47.332;9.404;2023-04-07T00:25:57;92598.06;;;4.99;51.62
65376;BME280;51976;47.332;9.404;2023-04-07T00:28:23;92689.28;;;5.77;51.20
65376;BME280;51976;47.332;9.404;2023-04-07T00:30:48;92691.25;;;5.55;52.03
65376;BME280;51976;47.332;9.404;2023-04-07T00:33:14;92693.38;;;5.53;52.21
65376;BME280;51976;47.332;9.404;2023-04-07T00:35:39;92684.94;;;5.66;51.45
65376;BME280;51976;47.332;9.404;2023-04-07T00:38:04;92686.13;;;5.48;52.74
65376;BME280;51976;47.332;9.404;2023-04-07T00:40:30;92630.47;;;5.08;52.67
65376;BME280;51976;47.332;9.404;2023-04-07T00:42:56;92673.81;;;5.47;52.43
65376;BME280;51976;47.332;9.404;2023-04-07T00:45:21;92678.50;;;5.30;53.06
65376;BME280;51976;47.332;9.404;2023-04-07T00:47:46;92671.53;;;5.29;53.29
65376;BME280;51976;47.332;9.404;2023-04-07T00:50:12;92675.41;;;5.43;53.27
65376;BME280;51976;47.332;9.404;2023-04-07T00:52:38;92666.53;;;5.74;52.62
65376;BME280;51976;47.332;9.404;2023-04-07T00:55:04;92666.75;;;6.00;52.22
65376;BME280;51976;47.332;9.404;2023-04-07T00:57:29;92665.50;;;5.81;52.93
65376;BME280;51976;47.332;9.404;2023-04-07T00:59:55;92620.69;;;5.24;54.00
65376;BME280;51976;47.332;9.404;2023-04-07T01:02:41;92649.78;;;5.52;53.65
65376;BME280;51976;47.332;9.404;2023-04-07T01:05:15;92649.38;;;5.65;53.34
65376;BME280;51976;47.332;9.404;2023-04-07T01:08:14;92645.75;;;5.87;52.35
65376;BME280;51976;47.332;9.404;2023-04-07T01:10:51;92637.78;;;5.55;52.83
65376;BME280;51976;47.332;9.404;2023-04-07T01:13:22;92638.38;;;5.62;52.76
65376;BME280;51976;47.332;9.404;2023-04-07T01:15:51;92560.25;;;5.13;52.89
65376;BME280;51976;47.332;9.404;2023-04-07T01:18:23;92637.63;;;5.66;52.98
65376;BME280;51976;47.332;9.404;2023-04-07T01:20:50;92637.75;;;5.50;53.55
65376;BME280;51976;47.332;9.404;2023-04-07T01:23:24;92630.78;;;5.49;53.56
65376;BME280;51976;47.332;9.404;2023-04-07T01:26:12;92618.75;;;5.46;53.77
65376;BME280;51976;47.332;9.404;2023-04-07T01:28:56;92624.63;;;5.43;53.78
65376;BME280;51976;47.332;9.404;2023-04-07T01:31:27;92620.44;;;5.57;53.30
65376;BME280;51976;47.332;9.404;2023-04-07T01:33:54;92622.72;;;5.38;53.86
65376;BME280;51976;47.332;9.404;2023-04-07T01:36:21;92627.25;;;5.38;53.82
65376;BME280;51976;47.332;9.404;2023-04-07T01:38:47;92623.81;;;5.48;53.51
65376;BME280;51976;47.332;9.404;2023-04-07T01:41:14;92623.41;;;5.61;53.04
65376;BME280;51976;47.332;9.404;2023-04-07T01:43:41;92619.53;;;5.41;53.67
65376;BME280;51976;47.332;9.404;2023-04-07T01:46:07;92621.22;;;5.58;53.12
65376;BME280;51976;47.332;9.404;2023-04-07T01:48:34;92614.13;;;5.73;53.04
65376;BME280;51976;47.332;9.404;2023-04-07T01:51:03;92608.63;;;5.53;53.27
65376;BME280;51976;47.332;9.404;2023-04-07T01:53:29;92593.69;;;5.57;53.45
65376;BME280;51976;47.332;9.404;2023-04-07T01:55:54;92597.69;;;5.55;53.47
65376;BME280;51976;47.332;9.404;2023-04-07T01:58:20;92593.59;;;5.42;53.65
65376;BME280;51976;47.332;9.404;2023-04-07T02:00:45;92598.44;;;5.50;53.65
65376;BME280;51976;47.332;9.404;2023-04-07T02:03:14;92550.63;;;5.12;53.88
65376;BME280;51976;47.332;9.404;2023-04-07T02:05:46;92589.16;;;5.58;53.59
65376;BME280;51976;47.332;9.404;2023-04-07T02:08:15;92570.66;;;5.46;53.86
65376;BME280;51976;47.332;9.404;2023-04-07T02:10:42;92584.94;;;5.67;53.97
65376;BME280;51976;47.332;9.404;2023-04-07T02:13:13;92583.25;;;5.56;54.84
65376;BME280;51976;47.332;9.404;2023-04-07T02:15:40;92582.97;;;5.52;54.97
65376;BME280;51976;47.332;9.404;2023-04-07T02:18:06;92579.09;;;5.33;55.89
65376;BME280;51976;47.332;9.404;2023-04-07T02:20:35;92584.88;;;5.57;55.59
65376;BME280;51976;47.332;9.404;2023-04-07T02:23:02;92582.56;;;5.70;55.21
65376;BME280;51976;47.332;9.404;2023-04-07T02:25:29;92575.81;;;5.63;55.58
65376;BME280;51976;47.332;9.404;2023-04-07T02:27:57;92574.94;;;5.52;55.80
65376;BME280;51976;47.332;9.404;2023-04-07T02:30:23;92570.75;;;5.66;55.56
65376;BME280;51976;47.332;9.404;2023-04-07T02:32:48;92566.81;;;5.74;55.41
65376;BME280;51976;47.332;9.404;2023-04-07T02:35:14;92551.94;;;5.51;55.83
65376;BME280;51976;47.332;9.404;2023-04-07T02:37:41;92517.59;;;5.28;56.25
65376;BME280;51976;47.332;9.404;2023-04-07T02:40:07;92559.78;;;5.63;55.78
65376;BME280;51976;47.332;9.404;2023-04-07T02:42:33;92553.63;;;5.62;55.71
65376;BME280;51976;47.332;9.404;2023-04-07T02:44:58;92554.59;;;5.46;55.97
65376;BME280;51976;47.332;9.404;2023-04-07T02:47:24;92563.94;;;5.49;55.95
65376;BME280;51976;47.332;9.404;2023-04-07T02:49:50;92550.13;;;5.62;55.20
65376;BME280;51976;47.332;9.404;2023-04-07T02:52:15;92539.38;;;5.47;55.45
65376;BME280;51976;47.332;9.404;2023-04-07T02:54:41;92535.84;;;5.41;55.51
65376;BME280;51976;47.332;9.404;2023-04-07T02:57:07;92539.88;;;5.49;55.66
65376;BME280;51976;47.332;9.404;2023-04-07T02:59:32;92530.03;;;5.54;55.79
65376;BME280;51976;47.332;9.404;2023-04-07T03:01:57;92537.97;;;5.39;56.59
65376;BME280;51976;47.332;9.404;2023-04-07T03:04:23;92531.09;;;5.53;56.24
65376;BME280;51976;47.332;9.404;2023-04-07T03:06:49;92522.78;;;5.50;56.44
65376;BME280;51976;47.332;9.404;2023-04-07T03:09:15;92522.44;;;5.36;56.73
65376;BME280;51976;47.332;9.404;2023-04-07T03:11:40;92517.19;;;5.46;56.04
65376;BME280;51976;47.332;9.404;2023-04-07T03:14:06;92516.34;;;5.40;56.23
65376;BME280;51976;47.332;9.404;2023-04-07T03:16:31;92525.09;;;5.31;56.62
65376;BME280;51976;47.332;9.404;2023-04-07T03:18:57;92517.09;;;5.36;56.46
65376;BME280;51976;47.332;9.404;2023-04-07T03:21:22;92504.78;;;5.30;56.30
65376;BME280;51976;47.332;9.404;2023-04-07T03:23:48;92509.69;;;5.48;56.20
65376;BME280;51976;47.332;9.404;2023-04-07T03:26:13;92514.00;;;5.54;55.91
65376;BME280;51976;47.332;9.404;2023-04-07T03:28:38;92512.09;;;5.44;56.31
65376;BME280;51976;47.332;9.404;2023-04-07T03:31:04;92502.94;;;5.35;56.57
65376;BME280;51976;47.332;9.404;2023-04-07T03:33:30;92505.00;;;5.23;56.88
65376;BME280;51976;47.332;9.404;2023-04-07T03:35:55;92512.03;;;5.34;56.70
65376;BME280;51976;47.332;9.404;2023-04-07T03:38:20;92504.78;;;5.30;56.61
65376;BME280;51976;47.332;9.404;2023-04-07T03:40:46;92486.03;;;5.20;56.61
65376;BME280;51976;47.332;9.404;2023-04-07T03:43:11;92503.59;;;5.10;57.09
65376;BME280;51976;47.332;9.404;2023-04-07T03:45:40;92502.91;;;4.93;57.55
65376;BME280;51976;47.332;9.404;2023-04-07T03:48:05;92503.19;;;4.97;57.40
65376;BME280;51976;47.332;9.404;2023-04-07T03:50:34;92493.31;;;4.92;57.76
65376;BME280;51976;47.332;9.404;2023-04-07T03:53:00;92498.16;;;5.00;57.56
65376;BME280;51976;47.332;9.404;2023-04-07T03:55:26;92482.28;;;5.26;57.11
65376;BME280;51976;47.332;9.404;2023-04-07T03:57:51;92477.81;;;4.57;58.98
65376;BME280;51976;47.332;9.404;2023-04-07T04:00:17;92472.47;;;4.94;58.28
65376;BME280;51976;47.332;9.404;2023-04-07T04:02:42;92479.41;;;4.95;58.33
65376;BME280;51976;47.332;9.404;2023-04-07T04:05:08;92473.13;;;5.12;57.88
65376;BME280;51976;47.332;9.404;2023-04-07T04:07:33;92440.41;;;4.94;58.06
65376;BME280;51976;47.332;9.404;2023-04-07T04:10:00;92473.25;;;4.90;58.52
65376;BME280;51976;47.332;9.404;2023-04-07T04:12:25;92479.63;;;4.84;58.61
65376;BME280;51976;47.332;9.404;2023-04-07T04:14:51;92481.03;;;4.96;58.38
65376;BME280;51976;47.332;9.404;2023-04-07T04:17:17;92478.56;;;4.85;58.56
65376;BME280;51976;47.332;9.404;2023-04-07T04:19:42;92450.81;;;4.54;59.35
65376;BME280;51976;47.332;9.404;2023-04-07T04:22:07;92470.72;;;4.73;59.21
65376;BME280;51976;47.332;9.404;2023-04-07T04:24:33;92469.28;;;4.92;58.76
65376;BME280;51976;47.332;9.404;2023-04-07T04:26:59;92393.66;;;4.50;58.38
65376;BME280;51976;47.332;9.404;2023-04-07T04:29:26;92461.78;;;4.89;58.16
65376;BME280;51976;47.332;9.404;2023-04-07T04:31:51;92399.16;;;4.38;58.28
65376;BME280;51976;47.332;9.404;2023-04-07T04:34:16;92456.91;;;4.81;57.90
65376;BME280;51976;47.332;9.404;2023-04-07T04:36:42;92465.88;;;4.70;58.21
65376;BME280;51976;47.332;9.404;2023-04-07T04:39:07;92469.50;;;4.54;58.32
65376;BME280;51976;47.332;9.404;2023-04-07T04:41:33;92463.97;;;4.60;58.15
65376;BME280;51976;47.332;9.404;2023-04-07T04:43:58;92466.06;;;4.58;58.26
65376;BME280;51976;47.332;9.404;2023-04-07T04:46:24;92471.31;;;4.48;58.32
65376;BME280;51976;47.332;9.404;2023-04-07T04:48:49;92467.38;;;4.56;58.06
65376;BME280;51976;47.332;9.404;2023-04-07T04:51:16;92474.69;;;4.70;57.75
65376;BME280;51976;47.332;9.404;2023-04-07T04:53:42;92470.56;;;4.85;57.68
65376;BME280;51976;47.332;9.404;2023-04-07T04:56:07;92477.53;;;4.91;57.45
65376;BME280;51976;47.332;9.404;2023-04-07T04:58:33;92460.47;;;4.92;57.57
65376;BME280;51976;47.332;9.404;2023-04-07T05:00:59;92463.41;;;4.95;57.33
65376;BME280;51976;47.332;9.404;2023-04-07T05:03:26;92468.72;;;4.90;57.22
65376;BME280;51976;47.332;9.404;2023-04-07T05:05:52;92419.69;;;4.64;57.56
65376;BME280;51976;47.332;9.404;2023-04-07T05:08:17;92466.38;;;4.62;58.45
65376;BME280;51976;47.332;9.404;2023-04-07T05:10:43;92463.75;;;4.72;58.70
65376;BME280;51976;47.332;9.404;2023-04-07T05:13:08;92452.88;;;4.79;58.19
65376;BME280;51976;47.332;9.404;2023-04-07T05:15:33;92457.41;;;4.78;58.46
65376;BME280;51976;47.332;9.404;2023-04-07T05:17:59;92452.38;;;4.82;58.12
65376;BME280;51976;47.332;9.404;2023-04-07T05:20:24;92458.25;;;4.84;57.37
65376;BME280;51976;47.332;9.404;2023-04-07T05:22:50;92453.50;;;4.54;57.92
65376;BME280;51976;47.332;9.404;2023-04-07T05:25:15;92451.41;;;4.61;57.81
65376;BME280;51976;47.332;9.404;2023-04-07T05:27:41;92444.31;;;4.45;58.32
65376;BME280;51976;47.332;9.404;2023-04-07T05:30:06;92443.16;;;4.67;57.65
65376;BME280;51976;47.332;9.404;2023-04-07T05:32:32;92446.00;;;4.51;58.56
65376;BME280;51976;47.332;9.404;2023-04-07T05:34:57;92444.94;;;4.52;58.97
65376;BME280;51976;47.332;9.404;2023-04-07T05:37:23;92431.00;;;4.45;59.30
65376;BME280;51976;47.332;9.404;2023-04-07T05:39:48;92444.53;;;4.70;59.18
65376;BME280;51976;47.332;9.404;2023-04-07T05:42:13;92434.00;;;4.90;58.17
65376;BME280;51976;47.332;9.404;2023-04-07T05:44:39;92424.38;;;4.94;57.45
65376;BME280;51976;47.332;9.404;2023-04-07T05:47:05;92421.56;;;5.11;57.12
65376;BME280;51976;47.332;9.404;2023-04-07T05:49:34;92426.69;;;5.23;56.80
65376;BME280;51976;47.332;9.404;2023-04-07T05:51:59;92379.72;;;4.80;57.25
65376;BME280;51976;47.332;9.404;2023-04-07T05:54:25;92424.50;;;5.09;57.21
65376;BME280;51976;47.332;9.404;2023-04-07T05:56:50;92425.09;;;5.27;56.73
65376;BME280;51976;47.332;9.404;2023-04-07T05:59:16;92416.31;;;5.31;56.29
65376;BME280;51976;47.332;9.404;2023-04-07T06:01:41;92419.56;;;5.38;55.69
65376;BME280;51976;47.332;9.404;2023-04-07T06:04:07;92424.53;;;5.15;55.96
65376;BME280;51976;47.332;9.404;2023-04-07T06:06:32;92420.91;;;4.89;55.79
65376;BME280;51976;47.332;9.404;2023-04-07T06:08:57;92416.00;;;5.18;55.52
65376;BME280;51976;47.332;9.404;2023-04-07T06:11:23;92414.94;;;5.19;55.18
65376;BME280;51976;47.332;9.404;2023-04-07T06:13:48;92416.13;;;5.43;54.63
65376;BME280;51976;47.332;9.404;2023-04-07T06:16:14;92419.13;;;5.62;54.27
65376;BME280;51976;47.332;9.404;2023-04-07T06:18:39;92418.88;;;5.78;53.28
65376;BME280;51976;47.332;9.404;2023-04-07T06:21:05;92421.13;;;5.92;53.22
65376;BME280;51976;47.332;9.404;2023-04-07T06:23:31;92420.31;;;5.91;52.95
65376;BME280;51976;47.332;9.404;2023-04-07T06:25:56;92418.72;;;5.95;52.96
65376;BME280;51976;47.332;9.404;2023-04-07T06:28:22;92424.06;;;6.05;52.62
65376;BME280;51976;47.332;9.404;2023-04-07T06:30:47;92425.16;;;5.99;52.74
65376;BME280;51976;47.332;9.404;2023-04-07T06:33:12;92427.41;;;5.65;53.58
65376;BME280;51976;47.332;9.404;2023-04-07T06:35:38;92432.00;;;5.70;53.81
65376;BME280;51976;47.332;9.404;2023-04-07T06:38:04;92422.38;;;5.84;53.60
65376;BME280;51976;47.332;9.404;2023-04-07T06:40:29;92424.34;;;5.99;53.05
65376;BME280;51976;47.332;9.404;2023-04-07T06:42:54;92385.22;;;5.88;52.80
65376;BME280;51976;47.332;9.404;2023-04-07T06:45:20;92419.81;;;6.09;53.04
65376;BME280;51976;47.332;9.404;2023-04-07T06:47:46;92421.13;;;5.92;52.98
65376;BME280;51976;47.332;9.404;2023-04-07T06:50:11;92397.22;;;5.75;52.97
65376;BME280;51976;47.332;9.404;2023-04-07T06:52:36;92417.91;;;6.05;52.72
65376;BME280;51976;47.332;9.404;2023-04-07T06:55:02;92421.13;;;5.92;53.02
65376;BME280;51976;47.332;9.404;2023-04-07T06:57:27;92416.31;;;6.09;53.11
65376;BME280;51976;47.332;9.404;2023-04-07T06:59:53;92399.38;;;5.83;52.87
65376;BME280;51976;47.332;9.404;2023-04-07T07:02:18;92413.56;;;5.73;53.24
65376;BME280;51976;47.332;9.404;2023-04-07T07:04:43;92406.34;;;5.74;53.64
65376;BME280;51976;47.332;9.404;2023-04-07T07:07:09;92398.84;;;5.86;53.19
65376;BME280;51976;47.332;9.404;2023-04-07T07:09:34;92405.06;;;5.97;53.62
65376;BME280;51976;47.332;9.404;2023-04-07T07:12:00;92321.78;;;5.58;53.08
65376;BME280;51976;47.332;9.404;2023-04-07T07:14:26;92414.75;;;6.38;52.69
65376;BME280;51976;47.332;9.404;2023-04-07T07:16:52;92416.06;;;6.31;53.06
65376;BME280;51976;47.332;9.404;2023-04-07T07:19:17;92404.03;;;6.38;53.03
65376;BME280;51976;47.332;9.404;2023-04-07T07:21:42;92416.88;;;6.36;52.66
65376;BME280;51976;47.332;9.404;2023-04-07T07:24:08;92412.06;;;6.64;52.28
65376;BME280;51976;47.332;9.404;2023-04-07T07:26:33;92413.13;;;6.93;51.38
65376;BME280;51976;47.332;9.404;2023-04-07T07:28:59;92401.88;;;6.86;51.18
65376;BME280;51976;47.332;9.404;2023-04-07T07:31:24;92400.03;;;6.76;51.27
65376;BME280;51976;47.332;9.404;2023-04-07T07:33:50;92397.63;;;6.80;50.75
65376;BME280;51976;47.332;9.404;2023-04-07T07:36:16;92408.78;;;7.23;50.37
65376;BME280;51976;47.332;9.404;2023-04-07T07:38:43;92407.59;;;7.64;50.00
65376;BME280;51976;47.332;9.404;2023-04-07T07:41:08;92397.84;;;7.84;49.19
65376;BME280;51976;47.332;9.404;2023-04-07T07:43:34;92395.16;;;8.28;48.20
65376;BME280;51976;47.332;9.404;2023-04-07T07:45:59;92395.78;;;8.14;47.90
65376;BME280;51976;47.332;9.404;2023-04-07T07:48:25;92393.66;;;8.11;47.75
65376;BME280;51976;47.332;9.404;2023-04-07T07:50:50;92395.69;;;8.30;47.81
65376;BME280;51976;47.332;9.404;2023-04-07T07:53:17;92351.84;;;8.44;47.12
65376;BME280;51976;47.332;9.404;2023-04-07T07:55:42;92393.47;;;8.76;45.75
65376;BME280;51976;47.332;9.404;2023-04-07T07:58:08;92386.03;;;8.97;45.48
65376;BME280;51976;47.332;9.404;2023-04-07T08:00:33;92392.22;;;9.50;44.29
65376;BME280;51976;47.332;9.404;2023-04-07T08:02:58;92391.69;;;9.48;44.47
65376;BME280;51976;47.332;9.404;2023-04-07T08:05:24;92385.75;;;9.51;44.60
65376;BME280;51976;47.332;9.404;2023-04-07T08:07:51;92382.06;;;9.42;44.07
65376;BME280;51976;47.332;9.404;2023-04-07T08:10:16;92389.66;;;8.82;45.07
65376;BME280;51976;47.332;9.404;2023-04-07T08:12:44;92349.09;;;8.49;44.65
65376;BME280;51976;47.332;9.404;2023-04-07T08:15:10;92390.97;;;8.85;44.79
65376;BME280;51976;47.332;9.404;2023-04-07T08:17:35;92388.19;;;9.24;44.27
65376;BME280;51976;47.332;9.404;2023-04-07T08:20:01;92389.81;;;9.25;44.16
65376;BME280;51976;47.332;9.404;2023-04-07T08:22:27;92397.56;;;9.02;44.79
65376;BME280;51976;47.332;9.404;2023-04-07T08:24:53;92388.34;;;8.79;45.19
65376;BME280;51976;47.332;9.404;2023-04-07T08:27:18;92384.28;;;8.82;44.90
65376;BME280;51976;47.332;9.404;2023-04-07T08:29:47;92389.91;;;8.86;44.93
65376;BME280;51976;47.332;9.404;2023-04-07T08:32:13;92393.34;;;8.91;45.05
65376;BME280;51976;47.332;9.404;2023-04-07T08:34:38;92392.88;;;8.84;45.21
65376;BME280;51976;47.332;9.404;2023-04-07T08:37:04;92393.78;;;8.74;44.87
65376;BME280;51976;47.332;9.404;2023-04-07T08:39:29;92392.97;;;8.74;45.13
65376;BME280;51976;47.332;9.404;2023-04-07T08:41:55;92393.91;;;8.88;45.14
65376;BME280;51976;47.332;9.404;2023-04-07T08:44:21;92393.34;;;8.91;45.21
65376;BME280;51976;47.332;9.404;2023-04-07T08:46:50;92396.59;;;8.88;45.03
65376;BME280;51976;47.332;9.404;2023-04-07T08:49:16;92396.75;;;8.73;45.09
65376;BME280;51976;47.332;9.404;2023-04-07T08:51:46;92351.63;;;8.31;45.11
65376;BME280;51976;47.332;9.404;2023-04-07T08:54:13;92396.28;;;8.61;45.46
65376;BME280;51976;47.332;9.404;2023-04-07T08:56:41;92402.69;;;8.70;45.08
65376;BME280;51976;47.332;9.404;2023-04-07T08:59:09;92400.06;;;8.60;45.43
65376;BME280;51976;47.332;9.404;2023-04-07T09:01:35;92394.81;;;8.44;45.46
65376;BME280;51976;47.332;9.404;2023-04-07T09:04:02;92402.41;;;8.32;45.64
65376;BME280;51976;47.332;9.404;2023-04-07T09:06:31;92403.22;;;8.23;46.18
65376;BME280;51976;47.332;9.404;2023-04-07T09:08:57;92397.28;;;8.31;46.38
65376;BME280;51976;47.332;9.404;2023-04-07T09:11:24;92402.94;;;8.34;46.54
65376;BME280;51976;47.332;9.404;2023-04-07T09:13:50;92390.47;;;8.48;46.30
65376;BME280;51976;47.332;9.404;2023-04-07T09:16:15;92376.72;;;8.16;47.40
65376;BME280;51976;47.332;9.404;2023-04-07T09:18:41;92403.22;;;8.33;47.34
65376;BME280;51976;47.332;9.404;2023-04-07T09:21:07;92399.84;;;8.51;46.11
65376;BME280;51976;47.332;9.404;2023-04-07T09:23:36;92401.16;;;8.54;46.93
65376;BME280;51976;47.332;9.404;2023-04-07T09:26:23;92395.94;;;8.38;46.61
65376;BME280;51976;47.332;9.404;2023-04-07T09:28:57;92404.34;;;8.61;47.06
65376;BME280;51976;47.332;9.404;2023-04-07T09:31:45;92399.16;;;8.74;46.24
65376;BME280;51976;47.332;9.404;2023-04-07T09:34:32;92401.66;;;8.61;46.30
65376;BME280;51976;47.332;9.404;2023-04-07T09:36:58;92399.38;;;8.78;46.15
65376;BME280;51976;47.332;9.404;2023-04-07T09:39:24;92397.75;;;8.77;46.29
65376;BME280;51976;47.332;9.404;2023-04-07T09:41:50;92399.75;;;8.66;46.43
65376;BME280;51976;47.332;9.404;2023-04-07T09:44:17;92396.88;;;8.87;45.94
65376;BME280;51976;47.332;9.404;2023-04-07T09:46:53;92393.00;;;8.69;45.74
65376;BME280;51976;47.332;9.404;2023-04-07T09:49:19;92388.81;;;8.87;45.60
65376;BME280;51976;47.332;9.404;2023-04-07T09:51:52;92402.00;;;8.83;45.74
65376;BME280;51976;47.332;9.404;2023-04-07T09:54:37;92403.38;;;8.80;45.71
65376;BME280;51976;47.332;9.404;2023-04-07T09:57:05;92403.13;;;8.77;45.24
65376;BME280;51976;47.332;9.404;2023-04-07T09:59:32;92408.84;;;8.70;45.62
65376;BME280;51976;47.332;9.404;2023-04-07T10:01:59;92409.56;;;8.81;45.81
65376;BME280;51976;47.332;9.404;2023-04-07T10:04:25;92401.22;;;8.82;46.17
65376;BME280;51976;47.332;9.404;2023-04-07T10:06:53;92400.72;;;8.75;45.03
65376;BME280;51976;47.332;9.404;2023-04-07T10:09:22;92399.53;;;8.58;45.59
65376;BME280;51976;47.332;9.404;2023-04-07T10:11:49;92405.47;;;8.55;45.60
65376;BME280;51976;47.332;9.404;2023-04-07T10:14:15;92401.78;;;8.45;46.08
65376;BME280;51976;47.332;9.404;2023-04-07T10:16:42;92408.69;;;8.57;45.71
65376;BME280;51976;47.332;9.404;2023-04-07T10:19:08;92407.84;;;8.61;45.72
65376;BME280;51976;47.332;9.404;2023-04-07T10:21:38;92410.56;;;8.56;45.90
65376;BME280;51976;47.332;9.404;2023-04-07T10:26:58;92407.63;;;8.53;46.13
65376;BME280;51976;47.332;9.404;2023-04-07T10:29:28;92405.78;;;8.48;46.01
65376;BME280;51976;47.332;9.404;2023-04-07T10:31:55;92409.31;;;8.43;46.13
65376;BME280;51976;47.332;9.404;2023-04-07T10:34:55;92407.19;;;8.40;46.11
65376;BME280;51976;47.332;9.404;2023-04-07T10:37:23;92413.53;;;8.55;46.11
65376;BME280;51976;47.332;9.404;2023-04-07T10:39:50;92419.94;;;8.59;45.97
65376;BME280;51976;47.332;9.404;2023-04-07T10:42:45;92415.63;;;8.63;45.91
65376;BME280;51976;47.332;9.404;2023-04-07T10:45:12;92415.75;;;8.47;46.33
65376;BME280;51976;47.332;9.404;2023-04-07T10:50:39;92415.09;;;8.61;46.01
65376;BME280;51976;47.332;9.404;2023-04-07T10:53:09;92430.16;;;8.57;46.49
65376;BME280;51976;47.332;9.404;2023-04-07T10:55:43;92425.03;;;8.60;47.04
65376;BME280;51976;47.332;9.404;2023-04-07T10:58:13;92422.00;;;8.72;46.80
65376;BME280;51976;47.332;9.404;2023-04-07T11:00:39;92431.22;;;8.61;46.81
65376;BME280;51976;47.332;9.404;2023-04-07T11:03:11;92412.63;;;8.69;46.59
65376;BME280;51976;47.332;9.404;2023-04-07T11:05:38;92428.03;;;8.54;47.33
65376;BME280;51976;47.332;9.404;2023-04-07T11:08:04;92423.94;;;8.66;47.11
65376;BME280;51976;47.332;9.404;2023-04-07T11:10:32;92432.56;;;8.58;47.39
65376;BME280;51976;47.332;9.404;2023-04-07T11:13:02;92434.44;;;8.63;47.55
65376;BME280;51976;47.332;9.404;2023-04-07T11:15:28;92436.53;;;8.71;47.48
65376;BME280;51976;47.332;9.404;2023-04-07T11:18:17;92437.16;;;8.58;47.67
65376;BME280;51976;47.332;9.404;2023-04-07T11:20:45;92429.00;;;8.73;47.61
65376;BME280;51976;47.332;9.404;2023-04-07T11:23:11;92430.69;;;8.59;48.01
65376;BME280;51976;47.332;9.404;2023-04-07T11:25:37;92435.47;;;8.67;47.74
65376;BME280;51976;47.332;9.404;2023-04-07T11:28:03;92396.47;;;8.30;48.49
65376;BME280;51976;47.332;9.404;2023-04-07T11:30:28;92442.28;;;8.54;48.68
65376;BME280;51976;47.332;9.404;2023-04-07T11:32:55;92437.88;;;8.68;48.91
65376;BME280;51976;47.332;9.404;2023-04-07T11:35:22;92439.88;;;8.87;48.79
65376;BME280;51976;47.332;9.404;2023-04-07T11:37:47;92446.06;;;8.87;48.46
65376;BME280;51976;47.332;9.404;2023-04-07T11:40:30;92440.03;;;8.71;48.38
65376;BME280;51976;47.332;9.404;2023-04-07T11:42:58;92445.94;;;8.68;48.75
65376;BME280;51976;47.332;9.404;2023-04-07T11:45:23;92439.06;;;8.52;48.75
65376;BME280;51976;47.332;9.404;2023-04-07T11:47:49;92412.00;;;8.43;48.92
65376;BME280;51976;47.332;9.404;2023-04-07T11:50:15;92428.75;;;8.69;49.07
65376;BME280;51976;47.332;9.404;2023-04-07T11:52:44;92451.03;;;8.70;49.02
65376;BME280;51976;47.332;9.404;2023-04-07T11:55:17;92445.13;;;8.73;48.82
65376;BME280;51976;47.332;9.404;2023-04-07T11:57:42;92412.19;;;8.52;48.55
65376;BME280;51976;47.332;9.404;2023-04-07T12:00:09;92401.25;;;8.43;48.90
65376;BME280;51976;47.332;9.404;2023-04-07T12:02:35;92452.84;;;8.79;49.38
65376;BME280;51976;47.332;9.404;2023-04-07T12:05:01;92444.66;;;8.95;49.10
65376;BME280;51976;47.332;9.404;2023-04-07T12:07:26;92452.63;;;9.05;49.02
65376;BME280;51976;47.332;9.404;2023-04-07T12:09:52;92448.69;;;8.97;49.33
65376;BME280;51976;47.332;9.404;2023-04-07T12:12:26;92453.34;;;8.81;50.04
65376;BME280;51976;47.332;9.404;2023-04-07T12:14:52;92455.44;;;8.90;49.47
65376;BME280;51976;47.332;9.404;2023-04-07T12:17:24;92425.53;;;8.67;49.90
65376;BME280;51976;47.332;9.404;2023-04-07T12:19:50;92450.94;;;8.80;50.53
65376;BME280;51976;47.332;9.404;2023-04-07T12:22:16;92454.69;;;8.84;50.55
65376;BME280;51976;47.332;9.404;2023-04-07T12:24:42;92465.44;;;8.84;50.90
65376;BME280;51976;47.332;9.404;2023-04-07T12:27:07;92457.94;;;8.81;51.81
65376;BME280;51976;47.332;9.404;2023-04-07T12:29:34;92465.13;;;8.52;52.12
65376;BME280;51976;47.332;9.404;2023-04-07T12:32:00;92463.09;;;8.28;52.72
65376;BME280;51976;47.332;9.404;2023-04-07T12:34:26;92462.34;;;8.67;52.40
65376;BME280;51976;47.332;9.404;2023-04-07T12:36:51;92462.25;;;8.43;53.02
65376;BME280;51976;47.332;9.404;2023-04-07T12:39:17;92467.22;;;8.60;52.86
65376;BME280;51976;47.332;9.404;2023-04-07T12:41:42;92470.31;;;8.43;53.87
65376;BME280;51976;47.332;9.404;2023-04-07T12:44:10;92469.69;;;8.51;53.49
65376;BME280;51976;47.332;9.404;2023-04-07T12:46:35;92414.84;;;8.13;54.10
65376;BME280;51976;47.332;9.404;2023-04-07T12:49:00;92390.50;;;7.94;54.51
65376;BME280;51976;47.332;9.404;2023-04-07T12:51:27;92474.78;;;8.53;54.29
65376;BME280;51976;47.332;9.404;2023-04-07T12:53:52;92475.97;;;8.36;54.45
65376;BME280;51976;47.332;9.404;2023-04-07T12:56:18;92473.44;;;8.55;53.50
65376;BME280;51976;47.332;9.404;2023-04-07T12:58:46;92468.03;;;8.60;53.36
65376;BME280;51976;47.332;9.404;2023-04-07T13:01:12;92462.69;;;8.55;53.42
65376;BME280;51976;47.332;9.404;2023-04-07T13:03:38;92463.84;;;8.44;53.77
65376;BME280;51976;47.332;9.404;2023-04-07T13:06:04;92460.31;;;8.48;53.25
65376;BME280;51976;47.332;9.404;2023-04-07T13:08:29;92465.06;;;8.62;53.98
65376;BME280;51976;47.332;9.404;2023-04-07T13:10:55;92477.75;;;8.51;53.39
65376;BME280;51976;47.332;9.404;2023-04-07T13:13:22;92469.50;;;8.42;53.64
65376;BME280;51976;47.332;9.404;2023-04-07T13:15:48;92454.38;;;8.52;53.01